Nicholasville, Kentucky
Current Conditions -  °F | °C
As of 10:54 PM on Wednesday 26 Nov 2014 (Local Time) from KLEX Reporting Station
Overcast Overcast  
Wind Chill: 30°   Ceiling: 10000
Heat Index: 34°   Visibility: 9mi
Dew Point: 29°   Wind: 5mph
Humidity: 82%   Direction: 40°NE
Pressure: 30.03"   Gusts: NA
Location:  37.89°N, 84.57°W
Report Text: KLEX 270354Z 04004KT 9SM OVC100 01/M02 A3003 RMK AO2 SLP175 T00111017
Loading
Personal Weather Stations






























Interactive Weather Map New forecast layout! Learn more

10-Day Weather Forecast

Advertisements
Track Severe Weather on mobile